Belomorsk, Russia
Current Conditions -  °F | °C
As of 9:30 PM on Tuesday 21 Oct 2014 (Local Time) from ULAA Reporting Station
Clear Clear  
Wind Chill: -2°   Ceiling: Unl
Heat Index:   Visibility: 6mi
Dew Point:   Wind: 4mph
Humidity: 85%   Direction: 40°NE
Pressure: 30.18"   Gusts: NA
Location:  64.53°N, 34.77°E
Report Text: ULAA 211830Z 04002MPS 360V060 CAVOK M14/M16 Q1022 NOSIG RMKQFE765/1021 SC060
Loading
Personal Weather Stations






























Interactive Weather Map
Tropical Storm Tracking
New forecast layout! Learn more

10-Day Weather Forecast

Advertisements
Track Severe Weather on mobile